createdAt,value
2018-03-07T04:32:04.731Z,44.75
2018-03-07T04:34:32.366Z,44.60
2018-03-07T04:37:00.000Z,41.28
2018-03-07T04:39:27.676Z,41.85
2018-03-07T04:41:55.313Z,42.83
2018-03-07T04:44:22.940Z,44.55
2018-03-07T04:46:50.604Z,41.53
2018-03-07T04:49:18.242Z,42.92
2018-03-07T04:51:45.914Z,39.65
2018-03-07T04:54:13.553Z,42.65
2018-03-07T04:56:41.193Z,42.53
2018-03-07T04:59:08.868Z,43.70
2018-03-07T05:01:36.513Z,41.95
2018-03-07T05:04:04.147Z,41.28
2018-03-07T05:06:32.616Z,41.70
2018-03-07T05:09:01.016Z,41.00
2018-03-07T05:11:28.661Z,41.95
2018-03-07T05:13:57.108Z,42.40
2018-03-07T05:16:24.741Z,45.10
2018-03-07T05:18:52.371Z,42.67
2018-03-07T05:21:20.049Z,44.25
2018-03-07T05:23:47.854Z,46.15
2018-03-07T05:26:15.485Z,41.85
2018-03-07T05:28:43.141Z,42.90
2018-03-07T05:31:10.777Z,47.47
2018-03-07T05:33:38.436Z,44.33
2018-03-07T05:36:06.068Z,44.78
2018-03-07T05:38:33.707Z,46.55
2018-03-07T05:41:01.390Z,48.05
2018-03-07T05:43:29.028Z,45.47
2018-03-07T05:45:56.715Z,49.03
2018-03-07T05:48:25.179Z,45.63
2018-03-07T05:50:52.820Z,44.85
2018-03-07T05:53:20.457Z,47.25
2018-03-07T05:55:48.145Z,43.30
2018-03-07T05:58:15.785Z,48.35
2018-03-07T06:00:43.420Z,48.30
2018-03-07T06:03:11.095Z,45.97
2018-03-07T06:05:38.735Z,45.70
2018-03-07T06:08:06.368Z,47.85
2018-03-07T06:10:34.029Z,46.35
2018-03-07T06:13:01.664Z,45.20
2018-03-07T06:15:29.295Z,50.88
2018-03-07T06:17:56.977Z,50.35
2018-03-07T06:20:24.609Z,49.80
2018-03-07T06:22:52.244Z,48.65
2018-03-07T06:25:20.697Z,47.60
2018-03-07T06:27:48.329Z,47.50
2018-03-07T06:30:15.969Z,52.45
2018-03-07T06:32:43.649Z,50.28
2018-03-07T06:35:11.292Z,52.03
2018-03-07T06:37:38.996Z,56.47
2018-03-07T06:40:06.764Z,51.90
2018-03-07T06:42:34.421Z,52.55
2018-03-07T06:45:02.271Z,52.08
2018-03-07T06:47:30.057Z,50.40
2018-03-07T06:49:57.697Z,51.03
2018-03-07T06:52:25.377Z,49.75
2018-03-07T06:54:53.012Z,49.05
2018-03-07T06:57:20.650Z,49.08
2018-03-07T06:59:48.326Z,48.53
2018-03-07T07:02:15.960Z,49.30
2018-03-07T07:04:43.593Z,50.83
2018-03-07T07:07:12.100Z,50.03
2018-03-07T07:09:39.876Z,49.80
2018-03-07T07:12:07.508Z,52.72
2018-03-07T07:14:35.952Z,53.85
2018-03-07T07:17:03.580Z,51.72
2018-03-07T07:19:31.216Z,52.28
2018-03-07T07:21:58.888Z,50.03
2018-03-07T07:24:26.539Z,53.45
2018-03-07T07:26:54.189Z,51.13
2018-03-07T07:29:21.854Z,50.67
2018-03-07T07:31:49.495Z,51.80
2018-03-07T07:34:17.909Z,52.38
2018-03-07T07:36:45.582Z,51.40
2018-03-07T07:39:13.208Z,50.75
2018-03-07T07:41:41.605Z,49.45
2018-03-07T07:44:09.290Z,51.60
2018-03-07T07:46:36.925Z,49.33
2018-03-07T07:49:04.564Z,54.67
2018-03-07T07:51:33.004Z,52.53
2018-03-07T07:54:00.636Z,53.25
2018-03-07T07:56:28.268Z,53.80
2018-03-07T07:58:56.705Z,52.33
2018-03-07T08:01:24.337Z,52.35
2018-03-07T08:03:51.972Z,52.62
2018-03-07T08:06:19.691Z,53.33
2018-03-07T08:08:48.112Z,50.55
2018-03-07T08:11:15.981Z,51.50
2018-03-07T08:13:43.645Z,53.40
2018-03-07T08:16:11.283Z,53.72
2018-03-07T08:18:39.727Z,53.10
2018-03-07T08:21:07.368Z,51.67
2018-03-07T08:23:34.996Z,54.00
2018-03-07T08:26:02.652Z,53.65
2018-03-07T08:28:30.288Z,55.08
2018-03-07T08:30:58.019Z,52.80
2018-03-07T08:33:25.673Z,54.03
2018-03-07T08:35:53.303Z,59.85
2018-03-07T08:38:21.032Z,61.67
2018-03-07T08:40:49.463Z,63.97
2018-03-07T08:43:17.097Z,59.80
2018-03-07T08:45:44.773Z,61.17
2018-03-07T08:48:12.412Z,57.03
2018-03-07T08:50:40.807Z,60.58
2018-03-07T08:53:08.537Z,59.03
2018-03-07T08:55:36.940Z,56.40
2018-03-07T08:58:04.838Z,63.47
2018-03-07T09:00:32.580Z,90.22
2018-03-07T09:03:00.216Z,60.47
2018-03-07T09:05:28.616Z,60.35
2018-03-07T09:07:56.312Z,57.65
2018-03-07T09:10:23.948Z,61.42
2018-03-07T09:12:51.575Z,59.15
2018-03-07T09:15:20.032Z,58.87
2018-03-07T09:17:47.766Z,61.40
2018-03-07T09:20:15.399Z,64.25
2018-03-07T09:22:43.072Z,62.95
2018-03-07T09:25:10.700Z,60.17
2018-03-07T09:27:39.103Z,62.30
2018-03-07T09:30:06.760Z,61.58
2018-03-07T09:32:34.392Z,61.58
2018-03-07T09:35:02.881Z,59.83
2018-03-07T09:37:31.267Z,61.50
2018-03-07T09:39:58.910Z,66.68
2018-03-07T09:42:27.349Z,61.28
2018-03-07T09:44:54.976Z,62.10
2018-03-07T09:47:22.615Z,59.55
2018-03-07T09:49:50.416Z,64.18
2018-03-07T09:52:18.068Z,61.53
2018-03-07T09:54:46.362Z,65.22
2018-03-07T09:57:14.044Z,65.90
2018-03-07T09:59:41.677Z,64.18
2018-03-07T10:02:09.385Z,60.12
2018-03-07T10:04:37.937Z,63.15
2018-03-07T10:07:05.617Z,63.13
2018-03-07T10:09:33.234Z,61.72
2018-03-07T10:12:00.909Z,60.67
2018-03-07T10:14:28.544Z,62.80
2018-03-07T10:16:56.187Z,61.55
2018-03-07T10:19:23.872Z,60.58
2018-03-07T10:21:51.506Z,61.53
2018-03-07T10:24:19.141Z,58.38
2018-03-07T10:26:47.589Z,57.95
2018-03-07T10:29:15.248Z,59.95
2018-03-07T10:31:43.656Z,60.78
2018-03-07T10:34:11.340Z,60.38
2018-03-07T10:36:38.977Z,58.38
2018-03-07T10:39:06.612Z,54.72
2018-03-07T10:41:34.296Z,58.05
2018-03-07T10:44:04.108Z,60.00
2018-03-07T10:46:31.908Z,57.10
2018-03-07T10:48:59.578Z,55.22
2018-03-07T10:51:27.213Z,57.90
2018-03-07T10:53:55.620Z,53.40
2018-03-07T10:56:23.300Z,56.13
2018-03-07T10:58:50.940Z,52.42
2018-03-07T11:01:18.582Z,52.15
2018-03-07T11:03:46.236Z,48.78
2018-03-07T11:06:14.697Z,45.50
2018-03-07T11:08:43.121Z,44.88
2018-03-07T11:11:10.761Z,40.78
2018-03-07T11:13:38.407Z,40.55
2018-03-07T11:16:06.845Z,37.50
2018-03-07T11:18:34.478Z,36.70
2018-03-07T11:21:02.117Z,34.13
2018-03-07T11:23:29.773Z,33.50
2018-03-07T11:25:58.164Z,31.73
2018-03-07T11:28:25.820Z,31.50
2018-03-07T11:30:53.449Z,30.70
2018-03-07T11:33:21.100Z,29.98
2018-03-07T11:35:48.762Z,27.40
2018-03-07T11:38:16.396Z,28.40
2018-03-07T11:40:44.028Z,27.50
2018-03-07T11:43:11.725Z,26.67
2018-03-07T11:45:39.356Z,26.55
2018-03-07T11:48:06.988Z,25.33
2018-03-07T11:50:35.421Z,27.80
2018-03-07T11:53:03.057Z,25.35
2018-03-07T11:55:30.688Z,25.45
2018-03-07T11:57:59.124Z,23.83
2018-03-07T12:00:26.756Z,27.50
2018-03-07T12:02:54.384Z,25.62
2018-03-07T12:05:22.806Z,26.90
2018-03-07T12:07:51.207Z,26.37
2018-03-07T12:10:18.846Z,27.37
2018-03-07T12:12:46.502Z,26.45
2018-03-07T12:15:14.145Z,25.52
2018-03-07T12:17:41.776Z,26.40
2018-03-07T12:20:10.225Z,25.88
2018-03-07T12:22:37.860Z,25.75
2018-03-07T12:25:05.488Z,27.10
2018-03-07T12:27:33.206Z,25.27
2018-03-07T12:30:00.849Z,26.52
2018-03-07T12:32:28.480Z,23.75
2018-03-07T12:34:56.132Z,24.70
2018-03-07T12:37:23.765Z,23.33
2018-03-07T12:39:51.421Z,22.62
2018-03-07T12:42:19.076Z,24.42
2018-03-07T12:44:46.708Z,23.27
2018-03-07T12:47:14.339Z,24.92
2018-03-07T12:49:42.086Z,25.20
2018-03-07T12:52:10.676Z,25.62
2018-03-07T12:54:38.309Z,25.73
2018-03-07T12:57:05.967Z,25.60
2018-03-07T12:59:33.610Z,24.42
2018-03-07T13:02:01.265Z,24.85
2018-03-07T13:04:28.940Z,26.80
2018-03-07T13:06:56.568Z,25.60
2018-03-07T13:09:24.200Z,25.77
2018-03-07T13:11:51.895Z,25.60
2018-03-07T13:14:19.537Z,26.40
2018-03-07T13:16:47.190Z,24.98
2018-03-07T13:19:14.885Z,26.35
2018-03-07T13:21:43.285Z,24.27
2018-03-07T13:24:10.944Z,25.00
2018-03-07T13:26:38.596Z,25.02
2018-03-07T13:29:06.232Z,24.33
2018-03-07T13:31:33.869Z,26.50
2018-03-07T13:34:01.549Z,27.55
2018-03-07T13:36:29.185Z,26.35
2018-03-07T13:38:56.816Z,28.12
2018-03-07T13:41:24.484Z,25.10
2018-03-07T13:43:52.885Z,26.00
2018-03-07T13:46:20.516Z,25.52
2018-03-07T13:48:48.958Z,24.20
2018-03-07T13:51:16.627Z,27.70
2018-03-07T13:53:44.257Z,25.12
2018-03-07T13:56:11.937Z,25.60
2018-03-07T13:58:39.568Z,24.20
2018-03-07T14:01:07.201Z,24.67
2018-03-07T14:03:35.620Z,23.25
2018-03-07T14:06:03.399Z,22.75
2018-03-07T14:08:31.076Z,23.50
2018-03-07T14:10:58.926Z,23.10
2018-03-07T14:13:26.606Z,22.00
2018-03-07T14:15:54.268Z,22.40
2018-03-07T14:18:22.010Z,22.92
2018-03-07T14:20:49.690Z,22.25
2018-03-07T14:23:17.349Z,22.83
2018-03-07T14:25:45.195Z,23.42
2018-03-07T14:28:12.958Z,21.33
2018-03-07T14:30:40.720Z,20.50
2018-03-07T14:33:08.484Z,18.77
2018-03-07T14:35:36.246Z,19.37
2018-03-07T14:38:04.014Z,19.30
2018-03-07T14:40:31.792Z,18.58
2018-03-07T14:42:59.771Z,17.12
2018-03-07T14:45:27.421Z,18.17
2018-03-07T14:47:55.266Z,16.87
2018-03-07T14:50:23.030Z,16.60
2018-03-07T14:52:50.708Z,17.45
2018-03-07T14:55:19.904Z,16.10
2018-03-07T14:57:47.564Z,17.50
2018-03-07T15:00:15.413Z,15.82
2018-03-07T15:02:43.098Z,15.88
2018-03-07T15:05:11.492Z,16.05
2018-03-07T15:07:39.928Z,16.25
2018-03-07T15:10:07.610Z,15.50
2018-03-07T15:12:35.352Z,15.98
2018-03-07T15:15:04.344Z,13.85
2018-03-07T15:17:33.029Z,14.60
2018-03-07T15:20:00.792Z,14.65
2018-03-07T15:22:28.472Z,14.23
2018-03-07T15:24:56.104Z,14.00
2018-03-07T15:27:23.792Z,14.50
2018-03-07T15:29:51.639Z,15.25
2018-03-07T15:32:19.302Z,13.60
2018-03-07T15:34:47.065Z,13.60
2018-03-07T15:37:14.927Z,13.75
2018-03-07T15:39:42.691Z,11.18
2018-03-07T15:42:10.369Z,11.75
2018-03-07T15:44:38.460Z,13.43
2018-03-07T15:47:07.002Z,11.15
2018-03-07T15:49:34.680Z,10.27
2018-03-07T15:52:02.353Z,11.80
2018-03-07T15:54:30.092Z,12.25
2018-03-07T15:56:57.850Z,11.65
2018-03-07T15:59:25.719Z,11.32
2018-03-07T16:01:56.585Z,11.20
2018-03-07T16:04:24.879Z,10.35
2018-03-07T16:06:53.407Z,11.32
2018-03-07T16:09:21.190Z,11.32
2018-03-07T16:11:49.035Z,12.10
2018-03-07T16:14:16.797Z,11.63
2018-03-07T16:16:44.472Z,11.05
2018-03-07T16:19:12.123Z,10.07
2018-03-07T16:21:40.189Z,9.70
2018-03-07T16:24:08.772Z,8.90
2018-03-07T16:26:36.889Z,9.77
2018-03-07T16:29:04.707Z,9.60
2018-03-07T16:31:32.716Z,9.13
2018-03-07T16:34:01.359Z,9.95
2018-03-07T16:36:29.005Z,9.63
2018-03-07T16:38:56.800Z,10.27
2018-03-07T16:41:25.281Z,9.32
2018-03-07T16:43:52.940Z,9.75
2018-03-07T16:46:20.926Z,10.40
2018-03-07T16:48:49.474Z,10.40
2018-03-07T16:51:17.955Z,10.20
2018-03-07T16:53:47.166Z,10.40
2018-03-07T16:56:14.929Z,10.85
2018-03-07T16:58:42.597Z,10.00
2018-03-07T17:01:10.763Z,11.70
2018-03-07T17:03:39.228Z,10.68
2018-03-07T17:06:06.865Z,11.32
2018-03-07T17:08:34.496Z,12.43
2018-03-07T17:11:03.055Z,13.48
2018-03-07T17:13:30.712Z,13.25
2018-03-07T17:15:59.113Z,12.57
2018-03-07T17:18:27.645Z,13.32
2018-03-07T17:20:55.408Z,12.82
2018-03-07T17:23:23.172Z,13.40
2018-03-07T17:25:50.955Z,12.90
2018-03-07T17:28:18.699Z,12.32
2018-03-07T17:30:46.376Z,12.43
2018-03-07T17:33:14.036Z,13.50
2018-03-07T17:35:41.681Z,13.62
2018-03-07T17:38:09.463Z,13.20
2018-03-07T17:40:37.306Z,13.62
2018-03-07T17:43:05.073Z,17.05
2018-03-07T17:45:32.934Z,15.73
2018-03-07T17:48:00.611Z,13.57
2018-03-07T17:50:28.276Z,13.77
2018-03-07T17:52:56.121Z,14.20
2018-03-07T17:55:23.884Z,13.65
2018-03-07T17:57:51.568Z,13.80
2018-03-07T18:00:19.410Z,14.10
2018-03-07T18:02:47.088Z,13.38
2018-03-07T18:05:14.730Z,14.45
2018-03-07T18:07:42.391Z,14.98
2018-03-07T18:10:10.156Z,16.65
2018-03-07T18:12:38.022Z,16.65
2018-03-07T18:15:05.683Z,20.62
2018-03-07T18:17:33.445Z,18.83
2018-03-07T18:20:01.226Z,18.20
2018-03-07T18:22:28.970Z,16.60
2018-03-07T18:24:56.630Z,14.80
2018-03-07T18:27:24.393Z,13.80
2018-03-07T18:29:52.155Z,15.30
2018-03-07T18:32:19.920Z,15.18
2018-03-07T18:34:47.784Z,18.42
2018-03-07T18:37:15.465Z,19.80
2018-03-07T18:39:43.124Z,17.92
2018-03-07T18:42:10.776Z,19.33
2018-03-07T18:44:38.446Z,18.50
2018-03-07T18:47:06.208Z,20.10
2018-03-07T18:49:34.689Z,17.92
2018-03-07T18:52:03.251Z,15.52
2018-03-07T18:54:31.013Z,14.38
2018-03-07T18:56:58.648Z,12.60
2018-03-07T18:59:26.367Z,12.90
2018-03-07T19:01:54.916Z,9.05
2018-03-07T19:04:22.680Z,7.85
2018-03-07T19:06:50.443Z,8.07
2018-03-07T19:09:18.207Z,7.05
2018-03-07T19:11:46.798Z,7.78
2018-03-07T19:14:14.550Z,7.80
2018-03-07T19:16:42.313Z,6.85
2018-03-07T19:19:09.973Z,6.85
2018-03-07T19:21:37.636Z,6.93
2018-03-07T19:24:05.413Z,6.53
2018-03-07T19:26:33.071Z,6.95
2018-03-07T19:29:00.821Z,6.70
2018-03-07T19:31:28.601Z,7.00
2018-03-07T19:33:56.261Z,7.65
2018-03-07T19:36:23.903Z,6.15
2018-03-07T19:38:51.667Z,5.60
2018-03-07T19:41:19.349Z,6.40
2018-03-07T19:43:47.009Z,6.40
2018-03-07T19:46:14.668Z,6.07
2018-03-07T19:48:42.416Z,7.07
2018-03-07T19:51:10.175Z,6.25
2018-03-07T19:53:37.938Z,6.70
2018-03-07T19:56:05.700Z,6.80
2018-03-07T19:58:33.463Z,7.07
2018-03-07T20:01:01.096Z,6.15
2018-03-07T20:03:28.804Z,7.15
2018-03-07T20:05:56.651Z,6.55
2018-03-07T20:08:24.412Z,5.68
2018-03-07T20:10:52.175Z,6.62
2018-03-07T20:13:19.853Z,6.10
2018-03-07T20:15:47.624Z,6.20
2018-03-07T20:18:15.362Z,5.25
2018-03-07T20:20:43.124Z,5.55
2018-03-07T20:23:10.895Z,5.25
2018-03-07T20:25:38.565Z,5.10
2018-03-07T20:28:06.414Z,4.82
2018-03-07T20:30:34.088Z,4.60
2018-03-07T20:33:02.041Z,5.15
2018-03-07T20:35:29.910Z,4.82
2018-03-07T20:37:58.493Z,4.32
2018-03-07T20:40:26.251Z,4.53
2018-03-07T20:42:54.014Z,4.97
2018-03-07T20:45:21.697Z,4.97
2018-03-07T20:47:49.540Z,4.00
2018-03-07T20:50:17.303Z,4.30
2018-03-07T20:52:45.066Z,4.40
2018-03-07T20:55:12.744Z,4.35
2018-03-07T20:57:40.499Z,4.82
2018-03-07T21:00:08.252Z,4.80
2018-03-07T21:02:36.016Z,4.97
2018-03-07T21:05:03.697Z,4.25
2018-03-07T21:07:31.336Z,4.28
2018-03-07T21:09:59.099Z,4.25
2018-03-07T21:12:26.862Z,5.03
2018-03-07T21:14:54.541Z,4.65
2018-03-07T21:17:22.183Z,4.82
2018-03-07T21:19:49.947Z,4.18
2018-03-07T21:22:17.711Z,4.40
2018-03-07T21:24:45.575Z,3.85
2018-03-07T21:27:13.337Z,4.28
2018-03-07T21:29:41.016Z,4.07
2018-03-07T21:32:08.863Z,3.97
2018-03-07T21:34:36.541Z,3.90
2018-03-07T21:37:04.200Z,4.12
2018-03-07T21:39:31.984Z,3.37
2018-03-07T21:41:59.710Z,3.67
2018-03-07T21:44:27.370Z,3.60
2018-03-07T21:46:55.133Z,2.87
2018-03-07T21:49:22.896Z,3.55
2018-03-07T21:51:50.659Z,4.07
2018-03-07T21:54:18.422Z,3.60
2018-03-07T21:56:46.101Z,3.05
2018-03-07T21:59:13.743Z,3.10
2018-03-07T22:01:41.529Z,3.00
2018-03-07T22:04:09.268Z,2.70
2018-03-07T22:06:36.930Z,2.90
2018-03-07T22:09:04.795Z,3.05
2018-03-07T22:11:32.454Z,3.10
2018-03-07T22:14:00.132Z,3.05
2018-03-07T22:16:27.812Z,3.03
2018-03-07T22:18:56.272Z,3.05
2018-03-07T22:21:24.121Z,3.15
2018-03-07T22:23:51.884Z,3.45
2018-03-07T22:26:19.560Z,3.00
2018-03-07T22:28:47.324Z,2.72
2018-03-07T22:31:14.945Z,3.15
2018-03-07T22:33:42.643Z,2.62
2018-03-07T22:36:10.392Z,3.15
2018-03-07T22:38:38.101Z,3.10
2018-03-07T22:41:06.634Z,2.60
2018-03-07T22:43:34.313Z,3.10
2018-03-07T22:46:01.972Z,2.80
2018-03-07T22:48:29.719Z,2.70
2018-03-07T22:50:57.380Z,2.80
2018-03-07T22:53:25.145Z,3.00
2018-03-07T22:55:52.905Z,2.45
2018-03-07T22:58:20.568Z,3.17
2018-03-07T23:00:48.854Z,2.95
2018-03-07T23:03:16.605Z,2.83
2018-03-07T23:05:44.280Z,3.35
2018-03-07T23:08:12.026Z,3.30
2018-03-07T23:10:39.644Z,2.70
2018-03-07T23:13:07.450Z,2.87
2018-03-07T23:15:35.128Z,2.70
2018-03-07T23:18:02.975Z,2.67
2018-03-07T23:20:30.739Z,3.22
2018-03-07T23:22:58.398Z,2.78
2018-03-07T23:25:26.266Z,3.47
2018-03-07T23:27:53.924Z,3.12
